Time;durP1;ratioP1;P1;durP2;ratioP2;P2;SDS_P1;SDS_P2;PMS_P1;PMS_P2;Temp;Humidity;BMP_temperature;BMP_pressure;BME280_temperature;BME280_humidity;BME280_pressure;Samples;Min_cycle;Max_cycle;Signal;HPM_P1;HPM_P2
2022/03/04 00:00:04;;;;;;;80.87;26.40;;;;;;;-1.27;100.00;101147.88;5030080;28;20204;-74
2022/03/04 00:02:30;;;;;;;73.70;24.67;;;;;;;-1.17;100.00;101150.88;5029916;28;20179;-73
2022/03/04 00:04:55;;;;;;;91.20;31.87;;;;;;;-1.35;100.00;101154.31;5029817;28;20422;-73
2022/03/04 00:07:20;;;;;;;84.47;29.80;;;;;;;-1.31;100.00;101155.50;5029600;28;20195;-73
2022/03/04 00:09:46;;;;;;;85.67;27.90;;;;;;;-1.21;100.00;101149.69;5029757;28;20199;-73
2022/03/04 00:12:12;;;;;;;74.67;25.50;;;;;;;-1.14;100.00;101147.78;5029997;28;20172;-73
2022/03/04 00:14:37;;;;;;;70.03;24.27;;;;;;;-1.21;100.00;101147.81;5029999;28;20172;-73
2022/03/04 00:17:02;;;;;;;65.03;24.27;;;;;;;-1.22;100.00;101151.53;5029456;28;20496;-73
2022/03/04 00:19:28;;;;;;;63.33;22.17;;;;;;;-1.29;100.00;101145.41;5030036;28;20176;-74
2022/03/04 00:21:53;;;;;;;77.33;28.80;;;;;;;-1.33;100.00;101141.50;5033420;28;20586;-73
2022/03/04 00:24:22;;;;;;;48.80;20.83;;;;;;;-1.29;100.00;101144.59;5033276;28;20229;-73
2022/03/04 00:26:48;;;;;;;57.67;22.63;;;;;;;-1.26;100.00;101155.69;5033209;28;20180;-73
2022/03/04 00:29:14;;;;;;;46.00;19.90;;;;;;;-1.15;100.00;101151.53;5033153;28;20914;-74
2022/03/04 00:31:40;;;;;;;73.20;26.23;;;;;;;-1.17;100.00;101147.38;5015487;28;20915;-73
2022/03/04 00:34:07;;;;;;;66.20;21.93;;;;;;;-1.12;100.00;101155.63;5032696;28;20430;-73
2022/03/04 00:36:36;;;;;;;71.60;25.70;;;;;;;-1.19;100.00;101150.28;5032925;28;20604;-73
2022/03/04 00:39:04;;;;;;;62.73;22.50;;;;;;;-1.14;100.00;101157.69;5032904;28;20414;-74
2022/03/04 00:41:30;;;;;;;73.83;25.57;;;;;;;-1.14;100.00;101158.53;5032981;28;21040;-73
2022/03/04 00:43:56;;;;;;;77.83;24.97;;;;;;;-1.14;100.00;101163.06;5032934;28;20522;-74
2022/03/04 00:46:21;;;;;;;49.43;19.27;;;;;;;-1.16;100.00;101160.56;5033044;28;20694;-73
2022/03/04 00:48:46;;;;;;;44.20;19.70;;;;;;;-1.12;100.00;101159.13;5032629;28;20202;-73
2022/03/04 00:51:13;;;;;;;56.00;19.97;;;;;;;-1.10;100.00;101164.25;5033085;28;20335;-73
2022/03/04 00:53:39;;;;;;;50.30;21.37;;;;;;;-1.06;100.00;101166.28;5032903;28;20176;-73
2022/03/04 00:56:06;;;;;;;48.70;20.03;;;;;;;-1.07;100.00;101153.09;5032940;28;20427;-73
2022/03/04 00:58:32;;;;;;;59.07;23.13;;;;;;;-1.07;100.00;101161.97;5032977;28;20211;-72
2022/03/04 01:00:58;;;;;;;52.17;22.43;;;;;;;-1.05;100.00;101164.41;5032792;28;20443;-73
2022/03/04 01:03:23;;;;;;;46.97;19.63;;;;;;;-1.03;100.00;101159.66;5033163;28;20588;-73
2022/03/04 01:05:49;;;;;;;47.23;20.73;;;;;;;-1.00;100.00;101170.78;5033091;28;20694;-73
2022/03/04 01:08:15;;;;;;;61.57;23.10;;;;;;;-1.02;100.00;101161.31;5032555;28;20181;-73
2022/03/04 01:10:40;;;;;;;59.27;24.67;;;;;;;-1.05;100.00;101164.41;5033172;28;20222;-73
2022/03/04 01:13:05;;;;;;;55.70;19.97;;;;;;;-0.99;100.00;101172.44;5032866;28;20207;-73
2022/03/04 01:15:31;;;;;;;62.37;25.30;;;;;;;-1.00;100.00;101160.06;5032595;28;20180;-73
2022/03/04 01:17:56;;;;;;;55.13;20.33;;;;;;;-0.93;100.00;101173.41;5032052;28;20253;-73
2022/03/04 01:20:22;;;;;;;57.00;21.67;;;;;;;-0.87;100.00;101169.03;5032632;28;20172;-73
2022/03/04 01:22:47;;;;;;;53.73;21.83;;;;;;;-0.85;100.00;101178.53;5050415;28;20198;-73
2022/03/04 01:25:13;;;;;;;49.67;19.17;;;;;;;-0.79;100.00;101169.59;5052493;28;20214;-73
2022/03/04 01:27:38;;;;;;;47.33;21.23;;;;;;;-0.79;100.00;101166.09;5052248;28;20187;-73
2022/03/04 01:30:07;;;;;;;55.27;22.80;;;;;;;-0.77;100.00;101170.19;5052533;28;20178;-73
2022/03/04 01:32:32;;;;;;;60.17;24.23;;;;;;;-0.84;100.00;101161.41;5050973;28;20178;-73
2022/03/04 01:34:58;;;;;;;51.37;20.97;;;;;;;-0.81;100.00;101166.31;5052449;28;20497;-73
2022/03/04 01:37:23;;;;;;;57.40;22.63;;;;;;;-0.82;100.00;101159.31;5052432;28;20602;-73
2022/03/04 01:39:49;;;;;;;66.53;25.23;;;;;;;-0.74;100.00;101147.47;5052655;28;20534;-73
2022/03/04 01:42:15;;;;;;;55.57;21.80;;;;;;;-0.76;100.00;101146.88;5052251;28;20207;-73
2022/03/04 01:44:40;;;;;;;67.03;25.50;;;;;;;-0.78;100.00;101154.31;5052347;28;20177;-73
2022/03/04 01:47:06;;;;;;;51.77;21.97;;;;;;;-0.75;100.00;101149.34;5052102;28;20167;-73
2022/03/04 01:49:32;;;;;;;61.83;24.63;;;;;;;-0.73;100.00;101139.19;5052180;28;20637;-73
2022/03/04 01:51:58;;;;;;;61.67;23.67;;;;;;;-0.75;100.00;101141.28;5052420;28;20199;-73
2022/03/04 01:54:24;;;;;;;44.20;19.93;;;;;;;-0.71;100.00;101136.31;5052299;28;20610;-73
2022/03/04 01:56:49;;;;;;;55.63;20.70;;;;;;;-0.72;100.00;101132.00;5051854;28;20252;-73
2022/03/04 01:59:15;;;;;;;47.70;19.73;;;;;;;-0.65;100.00;101136.25;5051932;28;20418;-73
2022/03/04 02:01:41;;;;;;;52.73;22.20;;;;;;;-0.59;100.00;101142.59;5052040;28;20321;-72
2022/03/04 02:04:06;;;;;;;50.20;18.33;;;;;;;-0.54;100.00;101141.94;5051928;28;20163;-73
2022/03/04 02:06:31;;;;;;;45.13;20.33;;;;;;;-0.60;100.00;101136.41;5033388;28;20185;-73
2022/03/04 02:08:57;;;;;;;47.27;19.63;;;;;;;-0.59;100.00;101142.59;5051300;28;20175;-73
2022/03/04 02:11:22;;;;;;;29.93;14.73;;;;;;;-0.53;100.00;101136.34;5051257;28;20167;-73
2022/03/04 02:13:47;;;;;;;48.43;19.37;;;;;;;-0.50;100.00;101159.25;5051093;28;20267;-73
2022/03/04 02:16:26;;;;;;;40.53;17.77;;;;;;;-0.53;100.00;101157.00;5051344;28;20178;-73
2022/03/04 02:18:52;;;;;;;29.03;16.23;;;;;;;-0.51;100.00;101147.69;5050979;28;20237;-73
2022/03/04 02:21:20;;;;;;;34.37;17.33;;;;;;;-0.51;100.00;101139.63;5051255;28;20175;-74
2022/03/04 02:23:46;;;;;;;38.57;20.10;;;;;;;-0.55;100.00;101138.44;5051019;28;20163;-74
2022/03/04 02:26:12;;;;;;;37.93;18.47;;;;;;;-0.53;100.00;101138.22;5033146;28;20194;-73
2022/03/04 02:28:38;;;;;;;33.83;18.33;;;;;;;-0.56;100.00;101139.50;5050519;28;20186;-73
2022/03/04 02:31:03;;;;;;;37.70;19.70;;;;;;;-0.52;100.00;101139.84;5050938;28;20175;-73
2022/03/04 02:33:28;;;;;;;31.70;17.70;;;;;;;-0.43;100.00;101130.50;5050632;28;20183;-74
2022/03/04 02:35:54;;;;;;;40.43;19.07;;;;;;;-0.39;100.00;101137.06;5050739;28;20489;-73
2022/03/04 02:38:19;;;;;;;29.50;15.93;;;;;;;-0.32;100.00;101135.94;5050436;28;20651;-73
2022/03/04 02:40:44;;;;;;;24.20;13.53;;;;;;;-0.28;100.00;101130.94;5050657;28;20190;-73
2022/03/04 02:43:10;;;;;;;19.77;14.00;;;;;;;-0.37;100.00;101127.72;5050407;28;20247;-73
2022/03/04 02:45:35;;;;;;;26.67;15.30;;;;;;;-0.40;100.00;101132.72;5050629;28;20183;-73
2022/03/04 02:48:01;;;;;;;33.97;18.50;;;;;;;-0.45;100.00;101127.19;5050535;28;20312;-73
2022/03/04 02:50:26;;;;;;;25.23;14.67;;;;;;;-0.44;100.00;101123.44;5050728;28;20194;-74
2022/03/04 02:52:51;;;;;;;26.77;16.50;;;;;;;-0.40;100.00;101133.53;5050498;28;20186;-73
2022/03/04 02:55:17;;;;;;;36.67;19.33;;;;;;;-0.35;100.00;101133.69;5050422;28;20621;-73
2022/03/04 02:57:45;;;;;;;39.53;19.43;;;;;;;-0.38;100.00;101131.47;5050393;28;20594;-73
2022/03/04 03:00:12;;;;;;;40.13;19.67;;;;;;;-0.33;100.00;101131.59;5050408;28;20224;-73
2022/03/04 03:02:38;;;;;;;47.23;21.33;;;;;;;-0.33;100.00;101130.78;5050329;28;20531;-73
2022/03/04 03:05:04;;;;;;;58.97;26.07;;;;;;;-0.33;100.00;101144.19;5050393;28;20454;-73
2022/03/04 03:07:29;;;;;;;46.37;23.10;;;;;;;-0.29;100.00;101129.28;5050014;28;20183;-73
2022/03/04 03:09:55;;;;;;;52.93;22.83;;;;;;;-0.33;100.00;101136.16;5050195;28;20179;-72
2022/03/04 03:12:20;;;;;;;34.70;18.50;;;;;;;-0.30;100.00;101136.50;5050189;28;20486;-73
2022/03/04 03:14:46;;;;;;;46.50;20.67;;;;;;;-0.20;100.00;101141.38;5050334;28;20194;-72
2022/03/04 03:17:12;;;;;;;54.20;24.33;;;;;;;-0.31;100.00;101142.13;5050060;28;20550;-73
2022/03/04 03:19:37;;;;;;;39.17;19.87;;;;;;;-0.28;100.00;101139.00;5050293;28;20302;-73
2022/03/04 03:22:03;;;;;;;37.70;18.83;;;;;;;-0.32;100.00;101141.28;5050107;28;20647;-73
2022/03/04 03:24:28;;;;;;;35.70;19.60;;;;;;;-0.34;100.00;101143.38;5050415;28;20515;-73
2022/03/04 03:26:54;;;;;;;43.00;19.60;;;;;;;-0.35;100.00;101147.13;5049898;28;20932;-73
2022/03/04 03:29:19;;;;;;;45.67;20.53;;;;;;;-0.32;100.00;101146.66;5050281;28;20224;-73
2022/03/04 03:31:44;;;;;;;43.00;20.53;;;;;;;-0.33;100.00;101147.69;5050124;28;20175;-73
2022/03/04 03:34:10;;;;;;;42.53;18.27;;;;;;;-0.29;100.00;101145.38;5049566;28;20179;-72
2022/03/04 03:36:36;;;;;;;38.23;19.37;;;;;;;-0.30;100.00;101154.50;5049975;28;20207;-73
2022/03/04 03:39:02;;;;;;;38.33;18.40;;;;;;;-0.34;100.00;101142.56;5050137;28;20250;-74
2022/03/04 03:41:27;;;;;;;32.93;18.67;;;;;;;-0.34;100.00;101148.75;5050033;28;20240;-73
2022/03/04 03:43:53;;;;;;;36.57;18.43;;;;;;;-0.30;100.00;101135.69;5049971;28;20175;-73
2022/03/04 03:46:19;;;;;;;34.13;16.20;;;;;;;-0.30;100.00;101138.38;5049985;28;20517;-73
2022/03/04 03:48:45;;;;;;;30.93;15.97;;;;;;;-0.23;100.00;101132.97;5049736;28;20237;-73
2022/03/04 03:51:10;;;;;;;46.47;20.27;;;;;;;-0.26;100.00;101134.22;5050108;28;20207;-73
2022/03/04 03:53:36;;;;;;;37.57;17.50;;;;;;;-0.37;100.00;101138.47;5050014;28;20511;-72
2022/03/04 03:56:02;;;;;;;36.63;19.20;;;;;;;-0.37;100.00;101135.78;5052699;28;20171;-73
2022/03/04 03:58:28;;;;;;;34.93;16.10;;;;;;;-0.35;100.00;101146.28;5053556;28;20171;-73
2022/03/04 04:00:53;;;;;;;34.50;18.30;;;;;;;-0.31;100.00;101144.78;5053653;28;20179;-73
2022/03/04 04:03:18;;;;;;;37.57;17.43;;;;;;;-0.34;100.00;101134.50;5053586;28;20500;-73
2022/03/04 04:05:44;;;;;;;45.13;21.57;;;;;;;-0.41;100.00;101139.13;5053673;28;20180;-74
2022/03/04 04:08:09;;;;;;;27.40;16.07;;;;;;;-0.46;100.00;101145.16;5053597;28;20183;-73
2022/03/04 04:10:34;;;;;;;27.17;16.13;;;;;;;-0.36;100.00;101139.28;5053719;28;20197;-73
2022/03/04 04:13:00;;;;;;;38.90;18.07;;;;;;;-0.38;100.00;101136.00;5053432;28;20179;-73
2022/03/04 04:15:25;;;;;;;28.70;16.03;;;;;;;-0.32;100.00;101140.47;5053346;28;20229;-73
2022/03/04 04:17:50;;;;;;;37.87;19.27;;;;;;;-0.37;100.00;101137.66;5035195;28;20203;-73
2022/03/04 04:20:16;;;;;;;31.80;14.90;;;;;;;-0.35;100.00;101148.97;5053299;28;20179;-73
2022/03/04 04:22:41;;;;;;;26.67;16.77;;;;;;;-0.39;100.00;101153.97;5053333;28;20225;-73
2022/03/04 04:25:07;;;;;;;28.93;15.47;;;;;;;-0.26;100.00;101160.25;5053468;28;20647;-73
2022/03/04 04:27:32;;;;;;;29.20;15.17;;;;;;;-0.43;100.00;101151.97;5052981;28;20264;-73
2022/03/04 04:29:57;;;;;;;14.13;9.07;;;;;;;-0.38;100.00;101160.16;5053199;28;20597;-73
2022/03/04 04:32:23;;;;;;;11.27;7.27;;;;;;;-0.27;100.00;101170.19;5053227;28;20205;-74
2022/03/04 04:34:48;;;;;;;11.40;6.60;;;;;;;-0.34;100.00;101167.53;5053294;28;20179;-74
2022/03/04 04:37:14;;;;;;;13.47;7.93;;;;;;;-0.28;100.00;101165.84;5052813;28;20203;-73
2022/03/04 04:39:39;;;;;;;18.37;11.30;;;;;;;-0.37;100.00;101162.63;5035066;28;20182;-74
2022/03/04 04:42:05;;;;;;;11.00;8.47;;;;;;;-0.41;100.00;101157.94;5053031;28;20171;-73
2022/03/04 04:44:30;;;;;;;11.93;8.00;;;;;;;-0.41;100.00;101168.66;5034995;28;20171;-74
2022/03/04 04:46:56;;;;;;;10.90;7.33;;;;;;;-0.42;100.00;101170.53;5034615;28;20534;-73
2022/03/04 04:49:21;;;;;;;9.50;6.57;;;;;;;-0.41;100.00;101168.66;5052942;28;20175;-73
2022/03/04 04:51:46;;;;;;;15.43;7.43;;;;;;;-0.25;100.00;101161.91;5052980;28;20589;-73
2022/03/04 04:54:12;;;;;;;12.50;6.77;;;;;;;-0.35;99.57;101157.84;5053076;28;20186;-73
2022/03/04 04:56:37;;;;;;;11.80;8.53;;;;;;;-0.35;99.75;101154.34;5053386;28;20501;-73
2022/03/04 04:59:03;;;;;;;13.03;9.37;;;;;;;-0.46;99.02;101153.19;5052867;28;20233;-73
2022/03/04 05:01:28;;;;;;;20.47;12.93;;;;;;;-0.64;99.82;101156.69;5053084;28;20254;-73
2022/03/04 05:03:53;;;;;;;31.13;16.10;;;;;;;-0.80;100.00;101151.88;5053385;28;20280;-73
2022/03/04 05:06:18;;;;;;;23.77;12.37;;;;;;;-0.84;100.00;101158.72;5052714;28;20481;-74
2022/03/04 05:08:44;;;;;;;19.57;11.47;;;;;;;-0.85;100.00;101156.25;5048347;28;20643;-73
2022/03/04 05:11:09;;;;;;;19.17;10.70;;;;;;;-0.83;100.00;101143.44;5053612;28;20689;-73
2022/03/04 05:13:35;;;;;;;21.87;11.17;;;;;;;-0.86;100.00;101155.44;5053635;28;20175;-75
2022/03/04 05:16:00;;;;;;;16.23;11.53;;;;;;;-0.84;100.00;101150.66;5035024;28;20163;-73
2022/03/04 05:18:25;;;;;;;18.17;11.53;;;;;;;-0.83;100.00;101163.03;5052957;28;20203;-75
2022/03/04 05:20:51;;;;;;;17.43;10.87;;;;;;;-0.80;100.00;101159.09;5053196;28;20167;-73
2022/03/04 05:23:58;;;;;;;21.53;12.17;;;;;;;-0.85;100.00;101157.06;5053141;28;20206;-73
2022/03/04 05:26:01;;;;;;;22.50;11.97;;;;;;;-0.84;100.00;101163.25;5052998;28;20175;-73
2022/03/04 05:28:27;;;;;;;26.13;14.90;;;;;;;-0.90;100.00;101155.03;5052858;28;20538;-73
2022/03/04 05:30:52;;;;;;;25.93;14.40;;;;;;;-0.89;100.00;101163.88;5053008;28;20418;-73
2022/03/04 05:33:18;;;;;;;25.57;14.70;;;;;;;-0.91;100.00;101160.59;5052727;28;20186;-73
2022/03/04 05:35:43;;;;;;;25.90;14.07;;;;;;;-0.92;100.00;101164.34;5053171;28;20187;-73
2022/03/04 05:38:09;;;;;;;20.07;11.63;;;;;;;-0.96;100.00;101173.84;5052917;28;20553;-73
2022/03/04 05:40:34;;;;;;;15.77;9.93;;;;;;;-0.96;100.00;101171.19;5034506;28;20207;-73
2022/03/04 05:42:59;;;;;;;16.20;11.63;;;;;;;-0.91;100.00;101174.03;5052828;28;20175;-73
2022/03/04 05:45:25;;;;;;;17.43;9.27;;;;;;;-0.93;100.00;101178.78;5052778;28;20172;-73
2022/03/04 05:47:50;;;;;;;8.67;7.83;;;;;;;-0.90;100.00;101178.34;5052872;28;20258;-74
2022/03/04 05:50:16;;;;;;;11.10;7.87;;;;;;;-0.88;100.00;101176.25;5052683;28;20175;-73
2022/03/04 05:52:41;;;;;;;9.33;7.67;;;;;;;-0.80;100.00;101172.50;5052540;28;20241;-73
2022/03/04 05:55:07;;;;;;;14.43;7.57;;;;;;;-0.75;100.00;101175.34;5052447;28;20262;-73
2022/03/04 05:57:33;;;;;;;15.07;9.63;;;;;;;-0.82;100.00;101172.72;5052316;28;20203;-75
2022/03/04 05:59:59;;;;;;;13.97;11.13;;;;;;;-0.86;100.00;101182.25;5052552;28;20203;-73
2022/03/04 06:02:27;;;;;;;32.60;14.80;;;;;;;-0.94;100.00;101175.28;5052222;28;20511;-74
2022/03/04 06:04:52;;;;;;;24.90;14.00;;;;;;;-0.99;100.00;101179.66;5052210;28;20422;-73
2022/03/04 06:07:18;;;;;;;39.13;18.33;;;;;;;-1.06;100.00;101190.41;5052386;28;20422;-73
2022/03/04 06:09:43;;;;;;;19.77;12.43;;;;;;;-0.99;100.00;101190.38;5052025;28;20183;-73
2022/03/04 06:12:08;;;;;;;21.40;11.07;;;;;;;-1.04;100.00;101196.38;5052119;28;20182;-73
2022/03/04 06:14:34;;;;;;;26.17;12.63;;;;;;;-1.05;100.00;101197.41;5052204;28;20179;-74
2022/03/04 06:17:00;;;;;;;29.13;13.50;;;;;;;-1.01;100.00;101195.16;5033751;28;20630;-73
2022/03/04 06:19:25;;;;;;;27.37;13.17;;;;;;;-1.03;100.00;101197.19;5051755;28;20254;-73
2022/03/04 06:21:51;;;;;;;26.87;12.63;;;;;;;-1.00;100.00;101200.28;5051912;28;20643;-74
2022/03/04 06:24:16;;;;;;;23.23;12.17;;;;;;;-0.98;100.00;101200.91;5051963;28;20175;-73
2022/03/04 06:26:41;;;;;;;11.23;9.03;;;;;;;-0.91;100.00;101192.78;5051870;28;20229;-73
2022/03/04 06:29:07;;;;;;;12.80;8.40;;;;;;;-0.73;100.00;101200.91;5051505;28;20215;-73
2022/03/04 06:31:32;;;;;;;11.50;7.47;;;;;;;-0.78;100.00;101199.94;5034146;28;20199;-73
2022/03/04 06:33:58;;;;;;;14.17;8.50;;;;;;;-0.74;100.00;101201.13;5051754;28;20182;-73
2022/03/04 06:36:23;;;;;;;10.27;7.30;;;;;;;-0.90;100.00;101207.84;5051583;28;20310;-74
2022/03/04 06:38:48;;;;;;;14.97;9.07;;;;;;;-0.78;100.00;101214.16;5051608;28;20536;-74
2022/03/04 06:41:14;;;;;;;12.43;8.37;;;;;;;-0.79;100.00;101209.00;5051835;28;20167;-73
2022/03/04 06:43:40;;;;;;;14.23;9.67;;;;;;;-0.84;100.00;101204.31;5051797;28;20262;-73
2022/03/04 06:46:06;;;;;;;18.10;9.70;;;;;;;-0.81;100.00;101211.91;5051570;28;20266;-73
2022/03/04 06:48:33;;;;;;;20.50;11.07;;;;;;;-0.70;100.00;101216.59;5051161;28;20176;-73
2022/03/04 06:50:59;;;;;;;15.67;9.73;;;;;;;-0.65;100.00;101221.28;5051288;28;20650;-73
2022/03/04 06:53:24;;;;;;;21.57;12.20;;;;;;;-0.57;100.00;101220.22;5051489;28;20172;-73
2022/03/04 06:55:51;;;;;;;32.80;13.13;;;;;;;-0.62;100.00;101226.22;5051327;28;20574;-73
2022/03/04 06:58:17;;;;;;;21.67;13.33;;;;;;;-0.60;100.00;101238.38;5051301;28;20213;-74
2022/03/04 07:00:42;;;;;;;26.70;12.50;;;;;;;-0.52;100.00;101236.47;5051277;28;20225;-73
2022/03/04 07:03:08;;;;;;;28.00;13.53;;;;;;;-0.56;99.89;101235.28;5051046;28;20167;-73
2022/03/04 07:05:35;;;;;;;21.03;11.77;;;;;;;-0.54;99.25;101228.63;5051400;28;20171;-73
2022/03/04 07:08:00;;;;;;;26.57;14.93;;;;;;;-0.77;98.63;101223.84;5051151;28;20170;-73
2022/03/04 07:10:26;;;;;;;27.10;11.87;;;;;;;-0.62;98.90;101240.44;5050990;28;20763;-74
2022/03/04 07:12:51;;;;;;;30.87;14.27;;;;;;;-0.74;99.02;101231.47;5051353;28;20178;-72
2022/03/04 07:15:17;;;;;;;21.77;11.50;;;;;;;-0.77;99.11;101242.63;5051518;28;20175;-73
2022/03/04 07:17:43;;;;;;;27.07;12.90;;;;;;;-0.75;99.80;101242.41;5032701;28;20249;-74
2022/03/04 07:20:09;;;;;;;21.20;11.07;;;;;;;-0.73;98.90;101243.81;5051047;28;20202;-73
2022/03/04 07:22:35;;;;;;;26.03;12.13;;;;;;;-0.76;99.30;101238.09;5051187;28;20171;-74
2022/03/04 07:25:05;;;;;;;36.03;14.87;;;;;;;-0.91;99.26;101238.38;5050839;28;20418;-74
2022/03/04 07:27:33;;;;;;;25.57;13.63;;;;;;;-0.85;99.59;101250.13;5050583;28;20555;-73
2022/03/04 07:29:58;;;;;;;23.57;12.50;;;;;;;-0.79;99.74;101244.72;5054042;28;20421;-74
2022/03/04 07:32:24;;;;;;;19.87;11.63;;;;;;;-0.69;99.62;101250.44;5055104;28;21073;-74
2022/03/04 07:34:49;;;;;;;19.53;11.27;;;;;;;-0.51;99.77;101255.03;5054890;28;20171;-75
2022/03/04 07:37:14;;;;;;;16.07;9.73;;;;;;;-0.46;99.12;101257.88;5036787;28;20207;-74
2022/03/04 07:39:40;;;;;;;18.73;9.77;;;;;;;-0.44;98.67;101265.72;5055277;28;20262;-74
2022/03/04 07:42:05;;;;;;;25.47;12.87;;;;;;;-0.51;98.48;101262.25;5054747;28;20183;-74
2022/03/04 07:44:30;;;;;;;23.47;12.47;;;;;;;-0.42;98.43;101266.34;5054828;28;20175;-75
2022/03/04 07:46:56;;;;;;;14.43;10.77;;;;;;;-0.35;97.67;101270.59;5054558;28;20244;-73
2022/03/04 07:49:21;;;;;;;18.27;11.50;;;;;;;-0.46;97.25;101273.16;5054630;28;20179;-74
2022/03/04 07:51:47;;;;;;;20.67;11.13;;;;;;;-0.45;97.09;101272.94;5054461;28;20634;-76
2022/03/04 07:54:13;;;;;;;16.03;10.17;;;;;;;-0.54;97.10;101278.81;5054460;28;20207;-73
2022/03/04 07:56:39;;;;;;;22.93;9.10;;;;;;;-0.52;97.32;101279.41;5054485;28;20203;-74
2022/03/04 07:59:04;;;;;;;19.77;9.83;;;;;;;-0.43;97.09;101278.94;5049676;28;20536;-75
2022/03/04 08:01:29;;;;;;;16.43;9.90;;;;;;;-0.36;97.16;101279.69;5054263;28;20654;-75
2022/03/04 08:03:55;;;;;;;15.63;10.60;;;;;;;-0.47;96.55;101283.06;5056869;28;20186;-74
2022/03/04 08:06:20;;;;;;;25.27;10.97;;;;;;;-0.61;96.15;101285.03;5057627;28;20627;-73
2022/03/04 08:08:46;;;;;;;19.73;11.53;;;;;;;-0.66;96.58;101286.72;5055294;28;20179;-74
2022/03/04 08:11:11;;;;;;;22.70;11.70;;;;;;;-0.68;96.59;101286.13;5054545;28;20277;-74
2022/03/04 08:13:36;;;;;;;18.00;11.33;;;;;;;-0.69;96.96;101282.63;5054522;28;20181;-73
2022/03/04 08:16:03;;;;;;;15.60;9.10;;;;;;;-0.58;97.51;101285.63;5054398;28;20179;-74
2022/03/04 08:18:28;;;;;;;14.97;8.77;;;;;;;-0.47;97.81;101293.00;5054135;28;20199;-74
2022/03/04 08:20:54;;;;;;;15.67;9.07;;;;;;;-0.52;98.02;101282.91;5054304;28;20788;-74
2022/03/04 08:23:19;;;;;;;14.70;9.20;;;;;;;-0.43;97.66;101278.94;5054356;28;20639;-77
2022/03/04 08:25:45;;;;;;;13.40;9.43;;;;;;;-0.21;97.25;101289.28;5054295;28;20175;-73
2022/03/04 08:28:10;;;;;;;11.70;7.23;;;;;;;-0.03;96.55;101300.88;5054085;28;20195;-74
2022/03/04 08:30:36;;;;;;;13.43;7.57;;;;;;;0.02;96.04;101286.81;5054283;28;20175;-74
2022/03/04 08:33:02;;;;;;;9.33;7.00;;;;;;;0.05;94.87;101285.56;5054054;28;20612;-73
2022/03/04 08:35:27;;;;;;;14.13;8.80;;;;;;;0.11;94.69;101282.78;5054284;28;20254;-74
2022/03/04 08:37:53;;;;;;;12.87;8.20;;;;;;;0.13;94.44;101286.06;5053837;28;20210;-74
2022/03/04 08:40:18;;;;;;;11.33;7.30;;;;;;;0.17;93.97;101281.91;5053319;28;20190;-74
2022/03/04 08:42:45;;;;;;;14.20;8.60;;;;;;;0.16;94.22;101288.34;5053915;28;20179;-73
2022/03/04 08:45:11;;;;;;;12.40;8.53;;;;;;;0.25;94.00;101283.47;5053868;28;20466;-74
2022/03/04 08:47:38;;;;;;;16.00;9.87;;;;;;;0.26;93.73;101291.31;5053785;28;20588;-73
2022/03/04 08:50:05;;;;;;;15.30;8.43;;;;;;;0.39;93.38;101300.28;5053777;28;20202;-74
2022/03/04 08:52:31;;;;;;;12.57;9.00;;;;;;;0.15;92.44;101294.75;5053726;28;20284;-74
2022/03/04 08:54:56;;;;;;;13.70;7.53;;;;;;;0.20;92.90;101300.28;5053801;28;20622;-74
2022/03/04 08:57:21;;;;;;;14.17;9.27;;;;;;;0.37;93.01;101297.81;5053470;28;20290;-73
2022/03/04 08:59:47;;;;;;;13.90;8.23;;;;;;;0.23;92.78;101302.50;5053453;28;20179;-73
2022/03/04 09:02:12;;;;;;;15.03;7.00;;;;;;;0.44;93.08;101306.66;5053143;28;20198;-74
2022/03/04 09:04:38;;;;;;;11.30;6.47;;;;;;;0.44;92.97;101301.28;5053382;28;20258;-74
2022/03/04 09:07:06;;;;;;;9.20;6.53;;;;;;;0.56;92.41;101299.47;5053311;28;20175;-74
2022/03/04 09:09:32;;;;;;;9.00;6.67;;;;;;;0.70;91.33;101312.75;5053164;28;20168;-74
2022/03/04 09:11:57;;;;;;;8.00;7.17;;;;;;;0.60;90.88;101302.56;5053120;28;20538;-78
2022/03/04 09:14:23;;;;;;;9.47;6.87;;;;;;;0.33;90.58;101295.81;5053201;28;20214;-78
2022/03/04 09:16:49;;;;;;;7.10;6.23;;;;;;;0.42;91.53;101306.03;5052463;28;20285;-75
2022/03/04 09:19:14;;;;;;;7.83;5.33;;;;;;;0.63;91.70;101312.03;5052718;28;20175;-77
2022/03/04 09:21:40;;;;;;;9.93;6.70;;;;;;;0.69;91.28;101311.94;5052522;28;20242;-73
2022/03/04 09:24:06;;;;;;;13.43;5.60;;;;;;;0.75;90.59;101310.25;5052627;28;20163;-73
2022/03/04 09:26:32;;;;;;;7.37;6.53;;;;;;;0.57;90.34;101301.09;5052538;28;20270;-73
2022/03/04 09:28:57;;;;;;;10.17;6.00;;;;;;;0.42;89.87;101299.84;5052324;28;20274;-73
2022/03/04 09:31:23;;;;;;;7.77;6.47;;;;;;;0.49;90.46;101304.13;5052425;28;20183;-73
2022/03/04 09:33:48;;;;;;;8.27;6.10;;;;;;;0.55;90.80;101302.38;5052316;28;20228;-73
2022/03/04 09:36:14;;;;;;;14.17;7.17;;;;;;;0.54;90.53;101304.25;5052208;28;20631;-73
2022/03/04 09:38:41;;;;;;;6.70;5.20;;;;;;;0.60;90.69;101318.69;5052176;28;20171;-73
2022/03/04 09:41:08;;;;;;;8.07;5.80;;;;;;;0.70;90.37;101316.28;5052236;28;20172;-73
2022/03/04 09:43:34;;;;;;;7.17;5.47;;;;;;;0.81;90.58;101312.84;5052235;28;20654;-73
2022/03/04 09:46:00;;;;;;;10.90;5.37;;;;;;;1.09;90.65;101319.53;5052248;28;20171;-73
2022/03/04 09:48:25;;;;;;;8.60;5.80;;;;;;;1.26;89.40;101320.53;5052008;28;20712;-73
2022/03/04 09:50:51;;;;;;;8.83;6.77;;;;;;;1.37;88.91;101324.34;5051238;28;20175;-73
2022/03/04 09:53:17;;;;;;;10.03;8.27;;;;;;;1.07;87.98;101332.41;5050699;28;20228;-73
2022/03/04 09:55:43;;;;;;;8.67;6.03;;;;;;;1.04;88.69;101320.22;5051771;28;20225;-73
2022/03/04 09:58:16;;;;;;;6.10;5.50;;;;;;;1.21;88.54;101333.06;5051423;28;20689;-73
2022/03/04 10:00:43;;;;;;;7.43;6.27;;;;;;;1.05;88.18;101329.94;5051634;28;20199;-73
2022/03/04 10:03:22;;;;;;;7.83;6.13;;;;;;;1.23;88.90;101339.84;5051532;28;20171;-73
2022/03/04 10:05:52;;;;;;;7.17;5.97;;;;;;;1.30;88.76;101337.91;5051619;28;20167;-74
2022/03/04 10:08:19;;;;;;;6.67;5.40;;;;;;;1.42;88.52;101332.53;5051323;28;20525;-73
2022/03/04 10:10:53;;;;;;;10.60;6.03;;;;;;;1.40;87.67;101337.31;5051371;28;20167;-73
2022/03/04 10:13:41;;;;;;;12.93;6.90;;;;;;;1.28;87.20;101333.75;5046636;28;20179;-74
2022/03/04 10:16:07;;;;;;;13.10;9.67;;;;;;;1.31;87.39;101333.34;5051325;28;20171;-73
2022/03/04 10:18:33;;;;;;;12.83;7.93;;;;;;;1.19;87.82;101327.91;5049908;28;20248;-73
2022/03/04 10:20:58;;;;;;;11.27;6.87;;;;;;;1.22;87.59;101319.34;5051133;28;20184;-73
2022/03/04 10:23:26;;;;;;;10.20;6.80;;;;;;;1.24;87.94;101328.03;5051172;28;20258;-73
2022/03/04 10:25:56;;;;;;;9.17;7.40;;;;;;;1.27;87.61;101327.56;5051044;28;20578;-73
2022/03/04 10:28:24;;;;;;;18.33;12.07;;;;;;;1.38;87.73;101324.09;5050874;28;20195;-73
2022/03/04 10:30:51;;;;;;;10.43;9.33;;;;;;;1.57;87.31;101326.72;5050970;28;20253;-73
2022/03/04 10:33:19;;;;;;;11.60;8.83;;;;;;;1.51;86.35;101328.47;5050923;28;20175;-74
2022/03/04 10:35:45;;;;;;;12.10;10.10;;;;;;;1.39;86.39;101322.22;5044879;28;20215;-73
2022/03/04 10:38:20;;;;;;;11.07;8.00;;;;;;;1.73;87.25;101324.19;5050617;28;20302;-73
2022/03/04 10:40:46;;;;;;;13.03;9.67;;;;;;;1.78;86.07;101320.81;5043106;28;20186;-73
2022/03/04 10:43:12;;;;;;;18.43;10.20;;;;;;;1.80;86.27;101324.09;5049674;28;20179;-73
2022/03/04 10:45:40;;;;;;;16.63;11.53;;;;;;;1.94;85.93;101322.00;5050907;28;20176;-74
2022/03/04 10:48:10;;;;;;;13.93;11.30;;;;;;;2.09;85.80;101327.78;5050951;28;20262;-73
2022/03/04 10:50:51;;;;;;;16.60;13.03;;;;;;;2.07;85.01;101322.63;5045967;28;20187;-73
2022/03/04 10:53:19;;;;;;;19.20;13.13;;;;;;;1.94;84.85;101322.00;5050942;28;20190;-73
2022/03/04 10:55:49;;;;;;;15.60;11.73;;;;;;;2.14;84.93;101322.50;5035677;28;20586;-73
2022/03/04 10:58:17;;;;;;;21.57;13.50;;;;;;;1.96;84.28;101314.50;5050477;28;20241;-74
2022/03/04 11:00:48;;;;;;;17.77;14.03;;;;;;;1.94;84.12;101324.72;5050800;28;20217;-73
2022/03/04 11:03:16;;;;;;;14.30;12.80;;;;;;;2.13;84.06;101320.84;5050480;28;20267;-74